createdAt,value
2022-09-25T00:01:37.999Z,22.90
2022-09-25T00:04:46.488Z,20.80
2022-09-25T00:07:54.043Z,20.40
2022-09-25T00:11:02.236Z,20.00
2022-09-25T00:14:09.876Z,18.50
2022-09-25T00:17:18.356Z,19.30
2022-09-25T00:20:26.758Z,18.70
2022-09-25T00:23:34.503Z,17.80
2022-09-25T00:26:42.956Z,18.40
2022-09-25T00:29:50.993Z,18.00
2022-09-25T00:32:58.581Z,18.80
2022-09-25T00:36:06.994Z,19.00
2022-09-25T00:39:14.961Z,19.20
2022-09-25T00:42:22.962Z,19.50
2022-09-25T00:45:30.953Z,17.80
2022-09-25T00:48:38.973Z,17.60
2022-09-25T00:51:46.967Z,17.20
2022-09-25T00:54:55.375Z,17.20
2022-09-25T00:58:04.738Z,16.10
2022-09-25T01:01:12.635Z,15.90
2022-09-25T01:04:20.706Z,16.70
2022-09-25T01:07:28.459Z,16.20
2022-09-25T01:10:36.420Z,15.20
2022-09-25T01:13:44.131Z,15.00
2022-09-25T01:16:52.431Z,15.30
2022-09-25T01:20:00.277Z,16.20
2022-09-25T01:23:08.093Z,17.10
2022-09-25T01:26:16.258Z,15.80
2022-09-25T01:29:23.894Z,17.00
2022-09-25T01:32:31.725Z,17.50
2022-09-25T01:35:39.844Z,17.80
2022-09-25T01:38:47.237Z,16.90
2022-09-25T01:41:55.048Z,17.60
2022-09-25T01:45:03.363Z,17.00
2022-09-25T01:48:10.728Z,17.60
2022-09-25T01:51:18.925Z,18.20
2022-09-25T01:54:27.250Z,16.80
2022-09-25T01:57:34.577Z,18.10
2022-09-25T02:00:42.754Z,18.50
2022-09-25T02:03:50.883Z,18.90
2022-09-25T02:06:58.305Z,18.80
2022-09-25T02:10:06.212Z,19.10
2022-09-25T02:13:13.915Z,19.10
2022-09-25T02:16:21.735Z,19.80
2022-09-25T02:19:30.151Z,19.50
2022-09-25T02:22:37.678Z,21.40
2022-09-25T02:25:45.269Z,19.70
2022-09-25T02:28:53.010Z,19.60
2022-09-25T02:32:00.817Z,21.40
2022-09-25T02:35:08.809Z,20.20
2022-09-25T02:38:16.460Z,20.60
2022-09-25T02:41:24.172Z,19.90
2022-09-25T02:44:32.096Z,20.20
2022-09-25T02:47:39.793Z,19.90
2022-09-25T02:50:47.335Z,19.70
2022-09-25T02:53:55.134Z,19.70
2022-09-25T02:57:04.403Z,19.90
2022-09-25T03:00:12.297Z,19.60
2022-09-25T03:03:19.838Z,19.30
2022-09-25T03:06:28.149Z,19.40
2022-09-25T03:09:36.362Z,18.40
2022-09-25T03:12:43.760Z,19.00
2022-09-25T03:15:51.760Z,19.90
2022-09-25T03:18:59.672Z,18.60
2022-09-25T03:22:07.661Z,19.80
2022-09-25T03:25:15.863Z,18.90
2022-09-25T03:28:23.363Z,19.40
2022-09-25T03:31:31.655Z,19.00
2022-09-25T03:34:39.894Z,18.50
2022-09-25T03:37:47.306Z,17.80
2022-09-25T03:40:55.470Z,18.40
2022-09-25T03:44:03.295Z,17.30
2022-09-25T03:47:10.980Z,16.70
2022-09-25T03:50:19.196Z,18.00
2022-09-25T03:53:27.130Z,17.00
2022-09-25T03:56:34.570Z,15.70
2022-09-25T03:59:42.872Z,17.50
2022-09-25T04:02:50.593Z,15.70
2022-09-25T04:05:58.313Z,16.80
2022-09-25T04:09:06.014Z,16.40
2022-09-25T04:12:14.086Z,15.90
2022-09-25T04:15:21.707Z,17.20
2022-09-25T04:18:29.336Z,16.30
2022-09-25T04:21:37.366Z,15.50
2022-09-25T04:24:45.167Z,16.80
2022-09-25T04:27:52.918Z,15.30
2022-09-25T04:31:01.068Z,16.30
2022-09-25T04:34:08.420Z,15.40
2022-09-25T04:37:16.540Z,15.80
2022-09-25T04:40:24.492Z,15.00
2022-09-25T04:43:31.862Z,15.00
2022-09-25T04:46:39.987Z,14.40
2022-09-25T04:49:47.753Z,15.00
2022-09-25T04:52:55.114Z,15.90
2022-09-25T04:56:03.267Z,16.10
2022-09-25T04:59:11.184Z,15.90
2022-09-25T05:02:19.000Z,15.60
2022-09-25T05:05:27.333Z,16.40
2022-09-25T05:08:34.900Z,17.40
2022-09-25T05:11:43.218Z,16.70
2022-09-25T05:14:51.111Z,17.10
2022-09-25T05:17:58.508Z,18.40
2022-09-25T05:21:06.644Z,17.80
2022-09-25T05:24:14.604Z,18.40
2022-09-25T05:27:22.390Z,18.90
2022-09-25T05:30:30.515Z,20.30
2022-09-25T05:33:38.343Z,19.70
2022-09-25T05:36:46.294Z,21.50
2022-09-25T05:39:54.466Z,21.20
2022-09-25T05:43:02.346Z,22.10
2022-09-25T05:46:10.143Z,21.70
2022-09-25T05:49:17.779Z,22.30
2022-09-25T05:52:25.809Z,21.20
2022-09-25T05:55:33.769Z,23.10
2022-09-25T05:58:41.592Z,22.10
2022-09-25T06:01:49.982Z,23.30
2022-09-25T06:04:57.452Z,24.10
2022-09-25T06:08:05.662Z,24.70
2022-09-25T06:11:13.873Z,24.50
2022-09-25T06:14:21.376Z,26.20
2022-09-25T06:17:29.561Z,24.80
2022-09-25T06:20:37.737Z,25.60
2022-09-25T06:23:45.146Z,25.20
2022-09-25T06:26:53.418Z,25.70
2022-09-25T06:30:01.458Z,25.10
2022-09-25T06:33:08.809Z,23.60
2022-09-25T06:36:17.076Z,25.90
2022-09-25T06:39:24.930Z,24.70
2022-09-25T06:42:32.489Z,25.20
2022-09-25T06:45:40.573Z,23.70
2022-09-25T06:48:48.462Z,23.90
2022-09-25T06:51:56.663Z,23.70
2022-09-25T06:55:04.994Z,24.10
2022-09-25T06:58:12.922Z,23.00
2022-09-25T07:01:20.893Z,24.00
2022-09-25T07:04:29.117Z,23.30
2022-09-25T07:07:36.856Z,22.80
2022-09-25T07:10:45.843Z,22.70
2022-09-25T07:13:53.359Z,22.00
2022-09-25T07:17:01.267Z,23.30
2022-09-25T07:20:09.559Z,21.80
2022-09-25T07:23:17.451Z,21.40
2022-09-25T07:26:25.622Z,21.10
2022-09-25T07:29:33.622Z,22.00
2022-09-25T07:32:41.341Z,22.10
2022-09-25T07:35:48.924Z,21.50
2022-09-25T07:38:56.489Z,21.00
2022-09-25T07:42:04.185Z,19.30
2022-09-25T07:45:11.958Z,19.80
2022-09-25T07:48:19.387Z,19.90
2022-09-25T07:51:27.619Z,19.20
2022-09-25T07:54:35.590Z,18.00
2022-09-25T07:57:43.117Z,19.40
2022-09-25T08:00:51.022Z,17.90
2022-09-25T08:03:58.420Z,16.90
2022-09-25T08:07:06.204Z,16.40
2022-09-25T08:10:13.993Z,16.50
2022-09-25T08:13:21.356Z,16.80
2022-09-25T08:16:29.123Z,15.70
2022-09-25T08:19:37.046Z,15.60
2022-09-25T08:22:44.457Z,14.80
2022-09-25T08:25:52.326Z,13.20
2022-09-25T08:29:00.141Z,13.20
2022-09-25T08:32:07.667Z,12.20
2022-09-25T08:35:15.456Z,10.40
2022-09-25T08:38:22.939Z,10.20
2022-09-25T08:41:30.871Z,8.50
2022-09-25T08:44:38.711Z,9.30
2022-09-25T08:47:46.192Z,8.00
2022-09-25T08:50:54.373Z,8.90
2022-09-25T08:53:54.734Z,8.20
2022-09-25T08:57:02.303Z,8.50
2022-09-25T09:00:10.493Z,10.20
2022-09-25T09:03:18.206Z,11.50
2022-09-25T09:06:26.030Z,10.60
2022-09-25T09:09:34.108Z,11.80
2022-09-25T09:12:41.929Z,11.10
2022-09-25T09:15:49.820Z,10.90
2022-09-25T09:18:57.700Z,10.80
2022-09-25T09:22:06.021Z,11.00
2022-09-25T09:25:14.021Z,9.80
2022-09-25T09:28:22.450Z,9.80
2022-09-25T09:31:30.935Z,9.40
2022-09-25T09:35:04.369Z,10.20
2022-09-25T09:38:00.524Z,9.80
2022-09-25T09:38:44.173Z,10.00
2022-09-25T09:41:52.069Z,10.20
2022-09-25T09:45:00.031Z,10.00
2022-09-25T09:48:07.739Z,9.80
2022-09-25T09:51:15.708Z,9.70
2022-09-25T09:54:23.595Z,9.90
2022-09-25T09:57:31.351Z,10.30
2022-09-25T10:00:39.202Z,10.10
2022-09-25T10:03:47.042Z,9.70
2022-09-25T10:06:54.825Z,8.80
2022-09-25T10:10:03.025Z,8.00
2022-09-25T10:13:10.424Z,5.90
2022-09-25T10:16:18.530Z,5.50
2022-09-25T10:19:25.987Z,6.30
2022-09-25T10:22:33.511Z,5.20
2022-09-25T10:25:41.590Z,5.00
2022-09-25T10:28:49.289Z,5.10
2022-09-25T10:31:57.281Z,5.90
2022-09-25T10:35:06.019Z,5.20
2022-09-25T10:38:13.702Z,5.90
2022-09-25T10:41:21.542Z,5.70
2022-09-25T10:44:29.934Z,6.10
2022-09-25T10:47:37.995Z,6.60
2022-09-25T10:50:46.116Z,7.40
2022-09-25T10:53:53.909Z,8.20
2022-09-25T10:57:01.751Z,9.20
2022-09-25T11:00:09.628Z,9.70
2022-09-25T11:03:17.556Z,9.50
2022-09-25T11:06:25.883Z,9.00
2022-09-25T11:09:33.817Z,8.20
2022-09-25T11:12:41.712Z,7.60
2022-09-25T11:15:49.783Z,7.20
2022-09-25T11:19:01.258Z,6.30
2022-09-25T11:22:01.233Z,6.70
2022-09-25T11:25:09.066Z,6.20
2022-09-25T11:28:16.610Z,6.40
2022-09-25T11:31:24.862Z,6.70
2022-09-25T11:34:33.297Z,6.40
2022-09-25T11:37:40.627Z,6.50
2022-09-25T11:40:48.378Z,6.20
2022-09-25T11:43:58.267Z,6.10
2022-09-25T11:47:06.330Z,6.50
2022-09-25T11:50:14.412Z,6.80
2022-09-25T11:53:21.954Z,5.90
2022-09-25T11:56:32.766Z,5.80
2022-09-25T11:59:30.295Z,6.40
2022-09-25T12:02:37.868Z,6.20
2022-09-25T12:05:46.077Z,7.00
2022-09-25T12:08:53.887Z,7.00
2022-09-25T12:12:01.508Z,7.10
2022-09-25T12:15:09.749Z,7.40
2022-09-25T12:18:17.653Z,6.70
2022-09-25T12:21:25.498Z,6.80
2022-09-25T12:24:33.653Z,6.50
2022-09-25T12:27:41.460Z,6.60
2022-09-25T12:30:49.315Z,5.90
2022-09-25T12:33:57.545Z,5.50
2022-09-25T12:37:05.251Z,5.30
2022-09-25T12:40:12.998Z,6.10
2022-09-25T12:43:20.678Z,5.80
2022-09-25T12:46:28.819Z,5.90
2022-09-25T12:49:36.240Z,5.90
2022-09-25T12:52:43.998Z,5.20
2022-09-25T12:55:51.812Z,5.20
2022-09-25T12:58:59.197Z,4.70
2022-09-25T13:02:07.626Z,4.50
2022-09-25T13:05:20.791Z,4.10
2022-09-25T13:08:18.242Z,4.30
2022-09-25T13:11:26.414Z,5.20
2022-09-25T13:14:34.726Z,4.80
2022-09-25T13:17:42.145Z,5.20
2022-09-25T13:20:50.345Z,4.70
2022-09-25T13:23:58.150Z,4.40
2022-09-25T13:27:06.130Z,4.90
2022-09-25T13:30:14.531Z,5.00
2022-09-25T13:33:22.165Z,4.20
2022-09-25T13:36:30.053Z,4.00
2022-09-25T13:39:38.126Z,3.90
2022-09-25T13:42:46.059Z,3.50
2022-09-25T13:45:53.941Z,3.20
2022-09-25T13:49:01.317Z,3.10
2022-09-25T13:52:09.307Z,3.00
2022-09-25T13:55:17.096Z,3.40
2022-09-25T13:58:24.978Z,2.90
2022-09-25T14:01:34.049Z,2.90
2022-09-25T14:04:42.620Z,3.10
2022-09-25T14:07:50.829Z,3.00
2022-09-25T14:10:58.931Z,2.60
2022-09-25T14:14:06.753Z,1.90
2022-09-25T14:17:14.644Z,2.20
2022-09-25T14:20:22.846Z,1.70
2022-09-25T14:23:30.246Z,2.30
2022-09-25T14:26:38.248Z,2.40
2022-09-25T14:29:46.139Z,2.20
2022-09-25T14:32:56.230Z,2.20
2022-09-25T14:35:53.901Z,1.70
2022-09-25T14:39:01.333Z,1.80
2022-09-25T14:41:10.628Z,1.80
2022-09-25T14:41:53.734Z,2.00
2022-09-25T14:44:58.356Z,2.20
2022-09-25T14:48:05.872Z,1.90
2022-09-25T14:51:14.218Z,2.10
2022-09-25T14:54:22.029Z,1.70
2022-09-25T14:57:29.678Z,1.60
2022-09-25T15:00:37.850Z,2.20
2022-09-25T15:03:45.530Z,2.20
2022-09-25T15:06:53.162Z,2.40
2022-09-25T15:10:01.529Z,1.80
2022-09-25T15:13:09.234Z,1.70
2022-09-25T15:16:17.049Z,1.50
2022-09-25T15:19:25.276Z,1.50
2022-09-25T15:22:33.120Z,1.50
2022-09-25T15:25:40.848Z,1.30
2022-09-25T15:28:48.661Z,1.40
2022-09-25T15:31:56.421Z,1.10
2022-09-25T15:35:04.710Z,1.30
2022-09-25T15:38:12.652Z,1.40
2022-09-25T15:41:20.093Z,1.20
2022-09-25T15:44:27.432Z,1.40
2022-09-25T15:47:35.396Z,0.80
2022-09-25T15:50:43.016Z,1.30
2022-09-25T15:53:50.526Z,1.30
2022-09-25T15:56:58.416Z,1.40
2022-09-25T16:00:06.249Z,1.50
2022-09-25T16:03:14.088Z,1.10
2022-09-25T16:06:22.181Z,1.10
2022-09-25T16:09:29.490Z,1.20
2022-09-25T16:12:37.671Z,1.60
2022-09-25T16:15:46.045Z,1.40
2022-09-25T16:18:54.381Z,1.50
2022-09-25T16:22:02.250Z,1.50
2022-09-25T16:25:10.014Z,1.10
2022-09-25T16:28:17.414Z,1.20
2022-09-25T16:31:25.594Z,1.10
2022-09-25T16:34:33.777Z,1.10
2022-09-25T16:37:41.278Z,1.10
2022-09-25T16:40:49.599Z,1.30
2022-09-25T16:43:57.577Z,1.20
2022-09-25T16:47:05.370Z,1.00
2022-09-25T16:50:13.709Z,1.40
2022-09-25T16:53:21.660Z,1.90
2022-09-25T16:56:29.617Z,1.50
2022-09-25T16:59:37.516Z,1.30
2022-09-25T17:02:45.615Z,2.10
2022-09-25T17:05:53.626Z,1.40
2022-09-25T17:09:02.506Z,1.50
2022-09-25T17:12:09.956Z,1.10
2022-09-25T17:15:18.208Z,1.70
2022-09-25T17:18:26.138Z,2.00
2022-09-25T17:21:33.995Z,1.30
2022-09-25T17:24:41.706Z,1.60
2022-09-25T17:27:49.450Z,1.40
2022-09-25T17:30:57.397Z,1.50
2022-09-25T17:34:05.492Z,1.50
2022-09-25T17:37:13.023Z,1.90
2022-09-25T17:40:21.491Z,2.20
2022-09-25T17:43:29.246Z,1.80
2022-09-25T17:46:37.286Z,1.80
2022-09-25T17:49:45.308Z,2.20
2022-09-25T17:52:53.415Z,2.70
2022-09-25T17:56:01.286Z,2.10
2022-09-25T17:59:09.713Z,2.20
2022-09-25T18:02:17.381Z,2.40
2022-09-25T18:05:25.830Z,2.50
2022-09-25T18:08:30.110Z,2.30
2022-09-25T18:11:38.063Z,2.70
2022-09-25T18:14:46.429Z,2.30
2022-09-25T18:17:54.191Z,2.50
2022-09-25T18:21:06.932Z,2.80
2022-09-25T18:24:05.635Z,3.10
2022-09-25T18:27:13.577Z,2.90
2022-09-25T18:30:21.959Z,3.10
2022-09-25T18:33:29.869Z,3.00
2022-09-25T18:36:37.969Z,3.10
2022-09-25T18:39:45.839Z,3.30
2022-09-25T18:42:54.271Z,3.60
2022-09-25T18:46:02.199Z,4.30
2022-09-25T18:49:10.192Z,3.40
2022-09-25T18:52:18.561Z,3.60
2022-09-25T18:55:26.734Z,4.30
2022-09-25T18:58:34.725Z,4.10
2022-09-25T19:01:42.732Z,4.50
2022-09-25T19:04:50.975Z,6.10
2022-09-25T19:07:59.056Z,5.40
2022-09-25T19:11:06.618Z,6.30
2022-09-25T19:14:14.608Z,5.60
2022-09-25T19:17:22.831Z,5.20
2022-09-25T19:20:30.765Z,6.30
2022-09-25T19:23:38.308Z,9.90
2022-09-25T19:26:46.655Z,10.60
2022-09-25T19:29:54.822Z,11.70
2022-09-25T19:33:02.713Z,11.30
2022-09-25T19:36:11.301Z,11.60
2022-09-25T19:39:19.262Z,11.00
2022-09-25T19:42:27.114Z,10.80
2022-09-25T19:45:35.307Z,10.90
2022-09-25T19:48:42.727Z,10.00
2022-09-25T19:51:50.777Z,10.40
2022-09-25T19:54:58.747Z,11.00
2022-09-25T19:58:06.280Z,10.10
2022-09-25T20:01:14.703Z,10.10
2022-09-25T20:04:22.829Z,10.30
2022-09-25T20:07:30.440Z,9.20
2022-09-25T20:10:39.401Z,10.80
2022-09-25T20:13:47.315Z,11.20
2022-09-25T20:16:55.603Z,11.20
2022-09-25T20:20:04.003Z,10.00
2022-09-25T20:23:11.405Z,10.90
2022-09-25T20:26:19.635Z,10.70
2022-09-25T20:29:27.884Z,9.60
2022-09-25T20:32:35.518Z,9.70
2022-09-25T20:35:43.608Z,9.90
2022-09-25T20:38:52.081Z,9.60
2022-09-25T20:42:00.181Z,9.40
2022-09-25T20:45:08.718Z,9.60
2022-09-25T20:48:16.409Z,9.40
2022-09-25T20:51:24.396Z,9.90
2022-09-25T20:54:32.681Z,9.70
2022-09-25T20:57:40.541Z,9.00
2022-09-25T21:00:48.241Z,9.50
2022-09-25T21:03:56.313Z,9.80
2022-09-25T21:07:04.089Z,9.90
2022-09-25T21:10:12.974Z,9.80
2022-09-25T21:13:20.401Z,10.30
2022-09-25T21:16:28.592Z,10.80
2022-09-25T21:19:36.434Z,11.50
2022-09-25T21:22:43.976Z,11.10
2022-09-25T21:25:52.208Z,10.30
2022-09-25T21:29:00.051Z,11.60
2022-09-25T21:32:07.539Z,11.10
2022-09-25T21:35:15.760Z,10.60
2022-09-25T21:38:23.140Z,11.00
2022-09-25T21:41:31.484Z,11.30
2022-09-25T21:44:39.631Z,10.30
2022-09-25T21:47:47.152Z,9.40
2022-09-25T21:50:55.432Z,9.80
2022-09-25T21:54:03.903Z,10.70
2022-09-25T21:57:11.204Z,10.20
2022-09-25T22:00:19.174Z,10.90
2022-09-25T22:03:27.074Z,10.70
2022-09-25T22:06:34.833Z,11.00
2022-09-25T22:09:42.864Z,10.60
2022-09-25T22:12:50.657Z,11.90
2022-09-25T22:15:58.578Z,11.50
2022-09-25T22:19:06.998Z,10.50
2022-09-25T22:22:14.998Z,10.90
2022-09-25T22:25:23.040Z,10.40
2022-09-25T22:28:30.778Z,9.90
2022-09-25T22:31:38.521Z,9.50
2022-09-25T22:34:46.211Z,9.40
2022-09-25T22:37:53.990Z,8.70
2022-09-25T22:41:02.021Z,8.90
2022-09-25T22:44:09.751Z,8.90
2022-09-25T22:47:17.574Z,8.30
2022-09-25T22:50:25.034Z,8.40
2022-09-25T22:53:32.497Z,7.70
2022-09-25T22:56:40.669Z,7.80
2022-09-25T22:59:48.525Z,6.60
2022-09-25T23:02:56.357Z,6.60
2022-09-25T23:06:04.623Z,7.60
2022-09-25T23:09:12.411Z,7.30
2022-09-25T23:12:20.097Z,7.30
2022-09-25T23:15:28.418Z,7.50
2022-09-25T23:18:35.781Z,6.80
2022-09-25T23:21:43.939Z,7.60
2022-09-25T23:24:52.096Z,7.10
2022-09-25T23:27:59.470Z,6.60
2022-09-25T23:31:07.537Z,7.20
2022-09-25T23:34:15.839Z,7.70
2022-09-25T23:37:23.249Z,6.60
2022-09-25T23:40:31.627Z,7.10
2022-09-25T23:43:39.886Z,6.90
2022-09-25T23:46:47.364Z,6.80
2022-09-25T23:49:55.161Z,6.40
2022-09-25T23:53:03.155Z,6.70
2022-09-25T23:56:10.965Z,7.10
2022-09-25T23:59:18.705Z,6.50
